Avon, Illinois
Current Conditions -  °F | °C
As of 4:55 AM on Friday 31 Oct 2014 (Local Time) from KMQB Reporting Station
Overcast Overcast  
Wind Chill:   Ceiling: 4600
Heat Index:   Visibility: 10mi
Dew Point: -1°   Wind: 23mph
Humidity: 58%   Direction: 340°NNW
Pressure: 30.19"   Gusts: 31mph
Location:  40.66°N, 90.43°W
Report Text: KMQB 310955Z AUTO 34020G27KT 10SM SCT038 OVC046 07/M01 A3019 RMK AO2 T00661011
Loading
Personal Weather Stations






























Interactive Weather Map
Tropical Storm Tracking
New forecast layout! Learn more

10-Day Weather Forecast

Advertisements
Track Severe Weather on mobile